createdAt,value
2017-11-20T00:01:52.277Z,2.20
2017-11-20T00:04:18.300Z,2.30
2017-11-20T00:06:44.360Z,2.00
2017-11-20T00:09:11.226Z,2.33
2017-11-20T00:11:37.216Z,2.20
2017-11-20T00:14:03.290Z,2.00
2017-11-20T00:16:30.048Z,2.28
2017-11-20T00:18:56.013Z,2.40
2017-11-20T00:21:21.981Z,2.00
2017-11-20T00:23:48.811Z,2.00
2017-11-20T00:26:15.549Z,2.47
2017-11-20T00:28:42.282Z,2.40
2017-11-20T00:31:09.065Z,2.20
2017-11-20T00:33:35.047Z,2.15
2017-11-20T00:36:01.782Z,2.12
2017-11-20T00:38:28.575Z,2.65
2017-11-20T00:40:54.563Z,2.40
2017-11-20T00:43:20.618Z,2.55
2017-11-20T00:45:46.622Z,2.10
2017-11-20T00:48:12.606Z,2.78
2017-11-20T00:50:38.617Z,2.80
2017-11-20T00:53:04.924Z,2.47
2017-11-20T00:55:30.884Z,2.47
2017-11-20T00:57:57.627Z,2.30
2017-11-20T01:00:24.352Z,2.22
2017-11-20T01:02:50.334Z,2.60
2017-11-20T01:05:16.339Z,2.60
2017-11-20T01:07:42.410Z,2.80
2017-11-20T01:10:08.411Z,3.40
2017-11-20T01:12:34.397Z,2.70
2017-11-20T01:15:00.392Z,2.80
2017-11-20T01:17:27.159Z,2.55
2017-11-20T01:19:53.176Z,2.22
2017-11-20T01:22:19.179Z,2.95
2017-11-20T01:24:45.937Z,2.55
2017-11-20T01:27:11.945Z,2.60
2017-11-20T01:29:38.713Z,2.45
2017-11-20T01:32:04.773Z,2.37
2017-11-20T01:34:30.793Z,2.40
2017-11-20T01:36:56.802Z,2.63
2017-11-20T01:39:22.785Z,2.37
2017-11-20T01:41:49.792Z,2.25
2017-11-20T01:44:15.838Z,2.30
2017-11-20T01:46:41.866Z,2.05
2017-11-20T01:49:08.628Z,2.50
2017-11-20T01:51:34.606Z,2.20
2017-11-20T01:54:00.599Z,2.60
2017-11-20T01:56:26.611Z,2.60
2017-11-20T01:58:52.605Z,3.12
2017-11-20T02:01:18.601Z,2.58
2017-11-20T02:03:44.668Z,3.05
2017-11-20T02:06:10.773Z,2.90
2017-11-20T02:08:36.809Z,2.78
2017-11-20T02:11:02.952Z,3.00
2017-11-20T02:13:28.943Z,2.80
2017-11-20T02:15:55.698Z,3.50
2017-11-20T02:18:21.706Z,3.37
2017-11-20T02:20:47.709Z,2.85
2017-11-20T02:23:14.473Z,3.30
2017-11-20T02:25:40.527Z,3.20
2017-11-20T02:28:06.539Z,2.90
2017-11-20T02:30:32.667Z,2.80
2017-11-20T02:32:58.703Z,2.80
2017-11-20T02:35:24.690Z,2.80
2017-11-20T02:37:50.725Z,2.55
2017-11-20T02:40:16.761Z,3.30
2017-11-20T02:42:42.849Z,2.97
2017-11-20T02:45:16.679Z,2.92
2017-11-20T02:47:42.693Z,2.93
2017-11-20T02:50:08.721Z,3.20
2017-11-20T02:52:35.026Z,2.90
2017-11-20T02:55:01.805Z,3.00
2017-11-20T02:57:27.833Z,3.60
2017-11-20T02:59:53.853Z,3.27
2017-11-20T03:02:19.863Z,3.20
2017-11-20T03:04:45.861Z,2.90
2017-11-20T03:07:11.863Z,3.50
2017-11-20T03:09:38.607Z,2.70
2017-11-20T03:12:05.387Z,2.80
2017-11-20T03:14:31.389Z,2.95
2017-11-20T03:16:57.421Z,3.00
2017-11-20T03:19:23.709Z,2.90
2017-11-20T03:21:51.270Z,3.83
2017-11-20T03:24:17.246Z,3.42
2017-11-20T03:26:43.506Z,3.37
2017-11-20T03:29:09.506Z,3.83
2017-11-20T03:31:35.514Z,3.00
2017-11-20T03:34:01.924Z,3.10
2017-11-20T03:36:28.665Z,4.00
2017-11-20T03:38:55.395Z,3.50
2017-11-20T03:42:24.132Z,3.58
2017-11-20T03:44:50.123Z,3.60
2017-11-20T03:47:16.131Z,3.90
2017-11-20T03:49:42.369Z,3.30
2017-11-20T03:52:08.363Z,3.58
2017-11-20T03:54:35.094Z,3.15
2017-11-20T03:57:01.234Z,3.70
2017-11-20T03:59:28.004Z,3.80
2017-11-20T04:01:54.046Z,3.80
2017-11-20T04:04:20.089Z,3.50
2017-11-20T04:06:46.083Z,4.30
2017-11-20T04:09:12.066Z,3.60
2017-11-20T04:11:39.007Z,3.60
2017-11-20T04:14:05.789Z,4.30
2017-11-20T04:16:31.777Z,3.60
2017-11-20T04:18:57.794Z,3.90
2017-11-20T04:21:24.518Z,3.80
2017-11-20T04:23:51.258Z,4.25
2017-11-20T04:26:17.290Z,3.90
2017-11-20T04:28:44.034Z,3.72
2017-11-20T04:31:10.827Z,3.87
2017-11-20T04:33:37.606Z,3.90
2017-11-20T04:36:04.362Z,4.00
2017-11-20T04:38:31.107Z,4.18
2017-11-20T04:40:57.141Z,4.10
2017-11-20T04:43:23.145Z,4.40
2017-11-20T04:45:49.906Z,4.35
2017-11-20T04:48:15.908Z,4.70
2017-11-20T04:50:41.901Z,4.50
2017-11-20T04:53:08.244Z,4.35
2017-11-20T04:55:34.965Z,4.60
2017-11-20T04:58:01.169Z,4.00
2017-11-20T05:00:27.341Z,4.30
2017-11-20T05:02:54.075Z,4.47
2017-11-20T05:05:20.808Z,4.35
2017-11-20T05:07:46.797Z,4.47
2017-11-20T05:10:12.803Z,3.90
2017-11-20T05:12:38.772Z,5.20
2017-11-20T05:15:04.803Z,3.92
2017-11-20T05:17:31.511Z,4.00
2017-11-20T05:19:57.529Z,4.53
2017-11-20T05:22:23.511Z,4.70
2017-11-20T05:24:49.519Z,4.60
2017-11-20T05:27:15.559Z,4.25
2017-11-20T05:29:41.576Z,5.00
2017-11-20T05:32:07.592Z,4.60
2017-11-20T05:34:33.917Z,4.62
2017-11-20T05:37:00.642Z,4.62
2017-11-20T05:39:27.363Z,4.35
2017-11-20T05:41:53.406Z,4.40
2017-11-20T05:44:20.118Z,3.85
2017-11-20T05:46:46.095Z,4.53
2017-11-20T05:49:12.127Z,4.60
2017-11-20T05:51:38.365Z,4.53
2017-11-20T05:54:04.336Z,3.72
2017-11-20T05:56:31.090Z,4.47
2017-11-20T05:58:57.133Z,3.92
2017-11-20T06:01:23.136Z,4.20
2017-11-20T06:03:49.461Z,4.70
2017-11-20T06:06:15.459Z,4.10
2017-11-20T06:08:41.445Z,4.70
2017-11-20T06:11:07.453Z,4.33
2017-11-20T06:13:33.454Z,4.10
2017-11-20T06:15:59.446Z,3.87
2017-11-20T06:18:25.432Z,3.72
2017-11-20T06:20:51.466Z,3.78
2017-11-20T06:23:17.465Z,4.10
2017-11-20T06:25:43.643Z,3.72
2017-11-20T06:28:16.718Z,4.07
2017-11-20T06:30:42.707Z,4.15
2017-11-20T06:33:08.726Z,3.70
2017-11-20T06:35:34.714Z,3.80
2017-11-20T06:38:01.451Z,3.70
2017-11-20T06:40:28.519Z,3.70
2017-11-20T06:42:54.506Z,3.72
2017-11-20T06:45:20.482Z,3.65
2017-11-20T06:47:46.497Z,3.10
2017-11-20T06:50:12.486Z,3.83
2017-11-20T06:52:39.235Z,3.20
2017-11-20T06:55:05.229Z,3.80
2017-11-20T06:57:31.189Z,3.30
2017-11-20T06:59:57.178Z,4.10
2017-11-20T07:02:23.910Z,3.40
2017-11-20T07:04:49.879Z,3.85
2017-11-20T07:07:16.183Z,3.87
2017-11-20T07:09:42.906Z,3.80
2017-11-20T07:12:09.613Z,3.55
2017-11-20T07:14:35.615Z,3.95
2017-11-20T07:17:01.817Z,3.90
2017-11-20T07:19:27.837Z,4.18
2017-11-20T07:21:54.585Z,4.00
2017-11-20T07:24:20.586Z,3.50
2017-11-20T07:26:56.450Z,4.40
2017-11-20T07:32:22.218Z,3.95
2017-11-20T07:34:55.455Z,4.00
2017-11-20T07:37:34.590Z,4.55
2017-11-20T07:40:13.681Z,4.22
2017-11-20T07:42:39.703Z,4.00
2017-11-20T07:45:05.673Z,3.90
2017-11-20T07:47:31.669Z,3.90
2017-11-20T07:49:58.642Z,4.00
2017-11-20T07:52:24.682Z,3.60
2017-11-20T07:54:50.673Z,3.70
2017-11-20T07:57:17.410Z,3.85
2017-11-20T07:59:44.163Z,3.83
2017-11-20T08:02:11.081Z,3.37
2017-11-20T08:04:37.748Z,3.70
2017-11-20T08:07:03.730Z,3.75
2017-11-20T08:09:29.723Z,3.67
2017-11-20T08:11:55.750Z,3.45
2017-11-20T08:14:21.712Z,3.50
2017-11-20T08:16:47.702Z,3.70
2017-11-20T08:19:13.855Z,3.70
2017-11-20T08:21:39.866Z,3.60
2017-11-20T08:24:05.849Z,3.90
2017-11-20T08:26:31.845Z,4.20
2017-11-20T08:28:57.842Z,3.60
2017-11-20T08:31:23.820Z,4.10
2017-11-20T08:33:49.822Z,3.27
2017-11-20T08:36:15.802Z,3.03
2017-11-20T08:38:41.774Z,3.28
2017-11-20T08:41:07.890Z,3.62
2017-11-20T08:43:33.889Z,3.30
2017-11-20T08:46:00.646Z,3.07
2017-11-20T08:48:26.674Z,3.60
2017-11-20T08:50:52.686Z,3.37
2017-11-20T08:53:18.689Z,3.35
2017-11-20T08:55:45.445Z,3.50
2017-11-20T08:58:11.438Z,3.67
2017-11-20T09:00:37.482Z,3.50
2017-11-20T09:03:04.227Z,3.40
2017-11-20T09:05:30.216Z,3.53
2017-11-20T09:07:56.241Z,3.30
2017-11-20T09:10:22.233Z,3.40
2017-11-20T09:12:48.210Z,3.40
2017-11-20T09:15:14.933Z,3.20
2017-11-20T09:17:42.410Z,4.20
2017-11-20T09:20:08.418Z,3.87
2017-11-20T09:22:35.170Z,3.92
2017-11-20T09:25:01.931Z,4.03
2017-11-20T09:27:27.937Z,4.10
2017-11-20T09:29:53.911Z,4.30
2017-11-20T09:32:19.906Z,4.50
2017-11-20T09:34:46.286Z,5.05
2017-11-20T09:37:12.266Z,4.25
2017-11-20T09:39:38.246Z,4.20
2017-11-20T09:42:04.971Z,4.72
2017-11-20T09:44:31.710Z,4.70
2017-11-20T09:46:57.690Z,5.87
2017-11-20T09:49:23.670Z,5.75
2017-11-20T09:51:50.377Z,5.68
2017-11-20T09:54:16.397Z,5.28
2017-11-20T09:56:42.377Z,5.07
2017-11-20T09:59:08.427Z,5.10
2017-11-20T10:01:34.454Z,4.75
2017-11-20T10:04:00.435Z,5.40
2017-11-20T10:06:26.414Z,5.32
2017-11-20T10:08:52.739Z,5.00
2017-11-20T10:11:18.706Z,5.30
2017-11-20T10:13:44.693Z,5.55
2017-11-20T10:16:10.972Z,5.10
2017-11-20T10:18:36.974Z,4.93
2017-11-20T10:21:02.958Z,5.25
2017-11-20T10:23:28.975Z,5.60
2017-11-20T10:25:55.040Z,4.97
2017-11-20T10:28:21.014Z,4.70
2017-11-20T10:30:47.006Z,4.47
2017-11-20T10:33:13.006Z,4.70
2017-11-20T10:35:39.049Z,5.00
2017-11-20T10:38:05.061Z,5.40
2017-11-20T10:40:31.057Z,5.20
2017-11-20T10:42:57.929Z,5.60
2017-11-20T10:45:23.942Z,5.65
2017-11-20T10:47:49.918Z,6.00
2017-11-20T10:50:15.923Z,6.00
2017-11-20T10:52:41.933Z,5.90
2017-11-20T10:55:07.924Z,5.50
2017-11-20T10:57:34.658Z,5.50
2017-11-20T11:00:01.021Z,5.00
2017-11-20T11:02:27.252Z,5.10
2017-11-20T11:04:53.502Z,4.90
2017-11-20T11:07:19.517Z,4.95
2017-11-20T11:09:45.514Z,4.57
2017-11-20T11:12:11.494Z,4.60
2017-11-20T11:14:39.389Z,4.85
2017-11-20T11:17:05.378Z,4.97
2017-11-20T11:19:32.093Z,5.00
2017-11-20T11:21:58.485Z,5.10
2017-11-20T11:24:24.494Z,5.12
2017-11-20T11:26:50.515Z,5.50
2017-11-20T11:29:16.498Z,5.70
2017-11-20T11:31:42.487Z,6.18
2017-11-20T11:34:08.458Z,6.20
2017-11-20T11:36:35.203Z,5.97
2017-11-20T11:39:02.046Z,5.60
2017-11-20T11:41:28.757Z,6.10
2017-11-20T11:43:54.738Z,6.18
2017-11-20T11:46:20.761Z,5.82
2017-11-20T11:48:46.729Z,5.60
2017-11-20T11:51:12.706Z,5.40
2017-11-20T11:53:38.717Z,5.57
2017-11-20T11:56:04.694Z,5.18
2017-11-20T11:58:30.678Z,5.32
2017-11-20T12:00:56.696Z,5.50
2017-11-20T12:03:22.712Z,5.60
2017-11-20T12:05:48.724Z,5.50
2017-11-20T12:08:14.728Z,6.10
2017-11-20T12:10:43.194Z,5.60
2017-11-20T12:13:09.995Z,6.12
2017-11-20T12:15:35.987Z,5.97
2017-11-20T12:18:02.006Z,6.05
2017-11-20T12:20:28.015Z,5.85
2017-11-20T12:22:54.742Z,6.30
2017-11-20T12:25:21.510Z,5.43
2017-11-20T12:27:47.505Z,6.00
2017-11-20T12:30:14.216Z,5.70
2017-11-20T12:32:40.316Z,5.20
2017-11-20T12:35:06.304Z,5.20
2017-11-20T12:37:32.281Z,4.50
2017-11-20T12:39:58.326Z,4.87
2017-11-20T12:42:25.119Z,4.33
2017-11-20T12:44:51.109Z,4.75
2017-11-20T12:47:17.162Z,4.57
2017-11-20T12:49:43.142Z,4.47
2017-11-20T12:52:09.878Z,4.60
2017-11-20T12:54:36.807Z,4.20
2017-11-20T12:57:02.797Z,4.10
2017-11-20T12:59:28.778Z,3.90
2017-11-20T13:01:55.532Z,4.15
2017-11-20T13:04:21.522Z,3.90
2017-11-20T13:06:48.269Z,3.55
2017-11-20T13:09:15.001Z,3.90
2017-11-20T13:11:40.993Z,3.60
2017-11-20T13:14:07.088Z,3.70
2017-11-20T13:16:33.086Z,3.10
2017-11-20T13:18:59.082Z,2.90
2017-11-20T13:21:25.083Z,2.50
2017-11-20T13:23:51.078Z,2.70
2017-11-20T13:26:17.063Z,2.30
2017-11-20T13:28:43.803Z,2.25
2017-11-20T13:31:10.602Z,2.30
2017-11-20T13:33:36.599Z,2.33
2017-11-20T13:36:02.682Z,2.15
2017-11-20T13:38:29.447Z,1.90
2017-11-20T13:40:55.648Z,2.33
2017-11-20T13:43:21.660Z,2.00
2017-11-20T13:45:47.641Z,2.20
2017-11-20T13:48:13.656Z,2.30
2017-11-20T13:50:39.663Z,1.90
2017-11-20T13:53:05.650Z,2.00
2017-11-20T13:55:31.694Z,2.20
2017-11-20T13:57:58.433Z,2.30
2017-11-20T14:00:25.166Z,2.30
2017-11-20T14:02:51.923Z,2.40
2017-11-20T14:05:17.930Z,2.50
2017-11-20T14:07:44.662Z,2.35
2017-11-20T14:10:11.443Z,2.40
2017-11-20T14:12:37.426Z,2.57
2017-11-20T14:15:04.166Z,91.60
2017-11-20T14:17:30.963Z,48.23
2017-11-20T14:19:56.955Z,3.47
2017-11-20T14:22:22.932Z,3.10
2017-11-20T14:24:49.087Z,2.67
2017-11-20T14:27:15.824Z,3.33
2017-11-20T14:29:42.575Z,3.10
2017-11-20T14:32:08.603Z,3.27
2017-11-20T14:34:34.640Z,3.22
2017-11-20T14:37:00.623Z,3.30
2017-11-20T14:39:26.841Z,3.53
2017-11-20T14:41:52.849Z,3.37
2017-11-20T14:44:18.876Z,3.62
2017-11-20T14:46:45.110Z,3.75
2017-11-20T14:49:11.121Z,3.45
2017-11-20T14:51:56.890Z,4.20
2017-11-20T14:54:24.897Z,4.32
2017-11-20T14:56:51.615Z,5.05
2017-11-20T14:59:17.622Z,4.62
2017-11-20T15:01:45.473Z,5.10
2017-11-20T15:04:11.457Z,5.25
2017-11-20T15:06:38.202Z,5.10
2017-11-20T15:09:04.226Z,5.55
2017-11-20T15:11:30.254Z,5.90
2017-11-20T15:13:56.432Z,6.47
2017-11-20T15:16:22.434Z,7.40
2017-11-20T15:18:48.422Z,7.20
2017-11-20T15:21:14.411Z,7.40
2017-11-20T15:23:40.387Z,7.15
2017-11-20T15:26:06.394Z,7.90
2017-11-20T15:28:32.424Z,8.57
2017-11-20T15:30:58.443Z,8.38
2017-11-20T15:33:24.414Z,7.80
2017-11-20T15:35:50.610Z,8.30
2017-11-20T15:38:16.604Z,8.30
2017-11-20T15:40:42.597Z,8.07
2017-11-20T15:43:09.370Z,7.90
2017-11-20T15:45:35.390Z,8.32
2017-11-20T15:48:01.383Z,8.63
2017-11-20T15:50:28.134Z,9.50
2017-11-20T15:52:54.865Z,10.57
2017-11-20T15:55:21.666Z,12.15
2017-11-20T15:57:47.688Z,12.37
2017-11-20T16:00:13.720Z,12.65
2017-11-20T16:02:39.725Z,13.23
2017-11-20T16:05:05.751Z,13.13
2017-11-20T16:07:31.745Z,13.00
2017-11-20T16:09:57.781Z,13.18
2017-11-20T16:12:23.805Z,26.17
2017-11-20T16:14:49.801Z,14.45
2017-11-20T16:17:15.791Z,12.73
2017-11-20T16:19:41.954Z,13.15
2017-11-20T16:22:07.952Z,13.60
2017-11-20T16:24:34.677Z,12.55
2017-11-20T16:27:00.703Z,12.20
2017-11-20T16:29:26.682Z,12.10
2017-11-20T16:31:52.679Z,12.18
2017-11-20T16:34:18.685Z,12.13
2017-11-20T16:36:45.408Z,11.40
2017-11-20T16:39:12.150Z,11.82
2017-11-20T16:41:38.909Z,11.52
2017-11-20T16:44:04.946Z,10.80
2017-11-20T16:46:30.930Z,11.43
2017-11-20T16:48:57.070Z,11.70
2017-11-20T16:51:23.802Z,11.10
2017-11-20T16:53:50.544Z,10.98
2017-11-20T16:56:16.541Z,10.68
2017-11-20T16:58:47.996Z,11.02
2017-11-20T17:01:26.527Z,11.45
2017-11-20T17:03:53.260Z,11.07
2017-11-20T17:06:20.098Z,11.35
2017-11-20T17:08:47.099Z,10.88
2017-11-20T17:11:13.086Z,11.00
2017-11-20T17:13:39.074Z,10.20
2017-11-20T17:16:05.061Z,10.70
2017-11-20T17:18:31.066Z,10.90
2017-11-20T17:20:57.075Z,11.50
2017-11-20T17:23:23.050Z,10.60
2017-11-20T17:25:49.867Z,11.50
2017-11-20T17:28:15.854Z,11.40
2017-11-20T17:30:41.925Z,10.32
2017-11-20T17:33:08.229Z,10.30
2017-11-20T17:35:34.250Z,9.70
2017-11-20T17:38:00.333Z,10.05
2017-11-20T17:40:26.495Z,10.20
2017-11-20T17:42:52.540Z,10.75
2017-11-20T17:45:18.534Z,11.10
2017-11-20T17:47:44.544Z,10.75
2017-11-20T17:50:11.290Z,10.60
2017-11-20T17:52:38.034Z,10.40
2017-11-20T17:55:04.091Z,10.98
2017-11-20T17:57:30.091Z,11.20
2017-11-20T17:59:56.085Z,10.77
2017-11-20T18:02:22.894Z,12.07
2017-11-20T18:04:48.880Z,10.90
2017-11-20T18:07:14.854Z,10.88
2017-11-20T18:09:40.862Z,11.20
2017-11-20T18:12:06.854Z,11.23
2017-11-20T18:14:32.873Z,11.60
2017-11-20T18:16:58.970Z,12.23
2017-11-20T18:19:25.286Z,12.32
2017-11-20T18:21:52.687Z,12.50
2017-11-20T18:24:19.009Z,13.37
2017-11-20T18:26:45.345Z,12.60
2017-11-20T18:29:18.502Z,13.75
2017-11-20T18:31:44.536Z,13.57
2017-11-20T18:34:10.781Z,13.53
2017-11-20T18:36:36.803Z,13.98
2017-11-20T18:39:02.945Z,14.23
2017-11-20T18:41:28.982Z,14.85
2017-11-20T18:43:54.999Z,14.77
2017-11-20T18:46:21.033Z,15.20
2017-11-20T18:48:47.045Z,14.45
2017-11-20T18:51:13.321Z,15.05
2017-11-20T18:53:39.314Z,15.82
2017-11-20T18:56:05.338Z,15.40
2017-11-20T18:58:31.353Z,15.83
2017-11-20T19:01:09.732Z,16.00
2017-11-20T19:03:48.120Z,16.50
2017-11-20T19:06:21.366Z,17.37
2017-11-20T19:08:59.788Z,17.85
2017-11-20T19:11:25.862Z,17.90
2017-11-20T19:13:51.870Z,18.50
2017-11-20T19:16:17.882Z,18.27
2017-11-20T19:18:44.678Z,18.02
2017-11-20T19:21:10.658Z,18.23
2017-11-20T19:23:36.859Z,18.08
2017-11-20T19:26:02.866Z,19.20
2017-11-20T19:28:29.638Z,19.52
2017-11-20T19:30:56.654Z,18.92
2017-11-20T19:35:38.548Z,18.48
2017-11-20T19:38:04.642Z,18.80
2017-11-20T19:40:30.640Z,18.98
2017-11-20T19:42:56.702Z,18.98
2017-11-20T19:45:22.689Z,19.58
2017-11-20T19:47:48.694Z,20.02
2017-11-20T19:50:15.457Z,20.73
2017-11-20T19:52:41.487Z,18.92
2017-11-20T19:55:07.478Z,20.25
2017-11-20T19:57:34.216Z,18.85
2017-11-20T20:00:00.946Z,18.70
2017-11-20T20:02:27.701Z,19.80
2017-11-20T20:04:54.430Z,18.70
2017-11-20T20:07:23.111Z,19.70
2017-11-20T20:09:49.122Z,20.45
2017-11-20T20:12:15.108Z,21.58
2017-11-20T20:14:53.512Z,22.80
2017-11-20T20:17:19.500Z,22.50
2017-11-20T20:19:45.512Z,22.27
2017-11-20T20:22:12.342Z,21.53
2017-11-20T20:24:38.354Z,21.70
2017-11-20T20:27:04.356Z,22.37
2017-11-20T20:29:30.730Z,22.05
2017-11-20T20:31:57.462Z,23.15
2017-11-20T20:34:24.233Z,23.30
2017-11-20T20:36:50.246Z,23.75
2017-11-20T20:39:16.252Z,23.77
2017-11-20T20:41:43.044Z,23.25
2017-11-20T20:44:09.025Z,24.20
2017-11-20T20:46:34.998Z,24.20
2017-11-20T20:49:01.026Z,24.65
2017-11-20T20:51:27.014Z,25.52
2017-11-20T20:53:53.023Z,25.90
2017-11-20T20:56:19.026Z,23.23
2017-11-20T20:58:45.775Z,22.48
2017-11-20T21:01:11.774Z,24.30
2017-11-20T21:03:38.540Z,23.20
2017-11-20T21:06:04.601Z,22.93
2017-11-20T21:08:30.609Z,22.85
2017-11-20T21:11:02.711Z,21.62
2017-11-20T21:13:28.711Z,22.50
2017-11-20T21:15:54.703Z,23.27
2017-11-20T21:18:21.149Z,24.25
2017-11-20T21:20:47.163Z,23.60
2017-11-20T21:23:13.142Z,24.52
2017-11-20T21:25:39.138Z,24.00
2017-11-20T21:28:05.120Z,24.83
2017-11-20T21:30:31.129Z,24.05
2017-11-20T21:32:57.160Z,23.42
2017-11-20T21:35:23.169Z,25.83
2017-11-20T21:37:50.135Z,23.48
2017-11-20T21:40:16.152Z,23.60
2017-11-20T21:42:42.444Z,24.80
2017-11-20T21:45:08.471Z,23.62
2017-11-20T21:47:35.241Z,25.50
2017-11-20T21:50:01.273Z,24.15
2017-11-20T21:52:27.267Z,24.40
2017-11-20T21:54:54.013Z,24.25
2017-11-20T21:57:20.730Z,23.10
2017-11-20T21:59:46.746Z,23.87
2017-11-20T22:02:12.885Z,25.08
2017-11-20T22:04:39.630Z,24.05
2017-11-20T22:07:06.349Z,23.30
2017-11-20T22:09:32.394Z,23.85
2017-11-20T22:11:59.136Z,24.30
2017-11-20T22:14:25.861Z,25.05
2017-11-20T22:16:51.937Z,23.95
2017-11-20T22:19:17.938Z,24.10
2017-11-20T22:21:43.926Z,24.33
2017-11-20T22:24:09.964Z,25.12
2017-11-20T22:26:35.994Z,23.95
2017-11-20T22:29:02.005Z,24.27
2017-11-20T22:31:29.063Z,24.90
2017-11-20T22:33:55.074Z,25.05
2017-11-20T22:36:21.840Z,25.55
2017-11-20T22:38:47.870Z,26.62
2017-11-20T22:41:13.879Z,25.52
2017-11-20T22:43:39.886Z,25.45
2017-11-20T22:46:06.647Z,25.83
2017-11-20T22:48:32.666Z,26.42
2017-11-20T22:50:58.695Z,25.43
2017-11-20T22:53:24.764Z,26.60
2017-11-20T22:55:50.751Z,26.85
2017-11-20T22:58:16.767Z,26.75
2017-11-20T23:00:42.854Z,25.88
2017-11-20T23:03:09.590Z,25.80
2017-11-20T23:05:36.337Z,25.65
2017-11-20T23:08:03.142Z,25.75
2017-11-20T23:10:29.114Z,24.50
2017-11-20T23:12:55.106Z,25.33
2017-11-20T23:15:21.094Z,24.27
2017-11-20T23:17:47.083Z,25.70
2017-11-20T23:20:13.091Z,25.17
2017-11-20T23:22:39.078Z,24.58
2017-11-20T23:25:05.070Z,24.58
2017-11-20T23:27:31.071Z,24.25
2017-11-20T23:29:57.060Z,23.10
2017-11-20T23:32:23.801Z,21.67
2017-11-20T23:34:51.459Z,22.07
2017-11-20T23:37:17.429Z,24.27
2017-11-20T23:39:43.425Z,23.73
2017-11-20T23:42:09.445Z,23.58
2017-11-20T23:44:35.452Z,22.70
2017-11-20T23:47:02.190Z,28.38
2017-11-20T23:49:28.943Z,24.50
2017-11-20T23:51:54.928Z,24.23
2017-11-20T23:54:33.478Z,24.05
2017-11-20T23:57:00.209Z,22.60
2017-11-20T23:59:26.955Z,23.48
